Time;durP1;ratioP1;P1;durP2;ratioP2;P2;SDS_P1;SDS_P2;PMS_P1;PMS_P2;Temp;Humidity;BMP_temperature;BMP_pressure;BME280_temperature;BME280_humidity;BME280_pressure;Samples;Min_cycle;Max_cycle;Signal;HPM_P1;HPM_P2
2024/02/29 00:01:02;;;;;;;11.15;4.80;;;;;;;10.38;85.55;101257.56;5062501;28;20060;-64
2024/02/29 00:03:29;;;;;;;11.73;5.20;;;;;;;10.53;85.10;101260.91;5059716;28;20040;-66
2024/02/29 00:05:56;;;;;;;9.90;4.55;;;;;;;10.51;85.65;101262.34;5069646;28;20048;-65
2024/02/29 00:08:24;;;;;;;14.43;5.25;;;;;;;10.57;85.10;101259.19;5054701;28;20079;-68
2024/02/29 00:10:51;;;;;;;15.52;5.07;;;;;;;10.50;85.28;101246.91;5067063;28;20661;-66
2024/02/29 00:13:19;;;;;;;12.75;4.95;;;;;;;10.41;85.58;101243.22;5065747;28;20056;-70
2024/02/29 00:15:46;;;;;;;11.43;5.45;;;;;;;10.44;85.96;101242.63;5065770;28;20603;-69
2024/02/29 00:18:14;;;;;;;14.38;4.95;;;;;;;10.20;87.17;101245.44;5049244;28;20056;-69
2024/02/29 00:20:41;;;;;;;12.95;4.93;;;;;;;10.33;87.49;101244.72;5045972;28;20059;-70
2024/02/29 00:23:09;;;;;;;14.60;4.90;;;;;;;10.50;87.47;101231.22;5062525;28;20511;-69
2024/02/29 00:25:36;;;;;;;11.45;4.57;;;;;;;10.36;88.00;101233.09;5066457;28;20087;-68
2024/02/29 00:28:04;;;;;;;11.02;4.22;;;;;;;10.55;87.71;101225.63;5050729;28;20814;-71
2024/02/29 00:30:31;;;;;;;12.55;4.65;;;;;;;10.57;87.61;101230.81;5067228;28;20052;-67
2024/02/29 00:32:59;;;;;;;10.90;4.03;;;;;;;10.73;86.83;101211.00;5065138;28;20818;-68
2024/02/29 00:35:26;;;;;;;12.05;4.30;;;;;;;10.66;87.34;101210.56;5065879;28;20052;-71
2024/02/29 00:37:54;;;;;;;14.50;4.30;;;;;;;10.72;87.25;101197.53;5050254;28;20463;-67
2024/02/29 00:40:24;;;;;;;12.68;4.65;;;;;;;10.74;87.29;101196.09;5056016;28;20075;-68
2024/02/29 00:42:51;;;;;;;12.00;4.15;;;;;;;10.61;87.59;101191.38;5065145;28;20056;-70
2024/02/29 00:45:18;;;;;;;11.55;4.07;;;;;;;10.52;87.40;101193.19;5077006;28;20094;-68
2024/02/29 00:47:46;;;;;;;10.23;3.85;;;;;;;10.56;87.77;101187.88;5055830;28;20436;-67
2024/02/29 00:50:15;;;;;;;8.95;4.07;;;;;;;10.57;88.38;101181.25;5073805;28;20667;-67
2024/02/29 00:52:42;;;;;;;13.30;4.32;;;;;;;10.70;88.28;101180.47;5045821;28;20049;-67
2024/02/29 00:55:11;;;;;;;10.45;4.00;;;;;;;10.54;88.11;101174.41;5058521;28;20053;-67
2024/02/29 00:57:40;;;;;;;11.25;4.25;;;;;;;10.75;87.53;101169.34;5064016;28;20075;-66
2024/02/29 01:00:11;;;;;;;14.55;4.35;;;;;;;10.76;87.92;101162.72;5064477;28;20131;-66
2024/02/29 01:02:39;;;;;;;10.55;4.05;;;;;;;10.70;88.03;101159.25;5063602;28;20059;-68
2024/02/29 01:05:07;;;;;;;11.05;4.18;;;;;;;10.45;89.73;101158.88;5063907;28;20053;-69
2024/02/29 01:07:36;;;;;;;8.90;3.97;;;;;;;10.62;89.61;101156.34;5044553;28;20071;-68
2024/02/29 01:10:05;;;;;;;9.35;4.03;;;;;;;10.72;90.04;101154.25;5066935;28;20063;-69
2024/02/29 01:12:34;;;;;;;11.60;4.30;;;;;;;10.79;89.69;101154.66;5063563;28;20431;-69
2024/02/29 01:15:02;;;;;;;10.37;3.90;;;;;;;10.73;89.19;101147.63;5059855;28;20056;-69
2024/02/29 01:17:29;;;;;;;12.45;4.05;;;;;;;10.67;89.54;101140.56;5055597;28;20045;-68
2024/02/29 01:19:57;;;;;;;9.63;3.90;;;;;;;10.80;89.86;101134.28;5064905;28;20059;-68
2024/02/29 01:22:24;;;;;;;14.10;4.40;;;;;;;10.68;89.75;101133.94;5064542;28;20048;-67
2024/02/29 01:24:52;;;;;;;11.23;4.22;;;;;;;10.86;90.33;101126.72;5065407;28;20053;-66
2024/02/29 01:27:19;;;;;;;7.78;3.80;;;;;;;10.71;89.89;101121.47;5069427;28;20543;-68
2024/02/29 01:29:47;;;;;;;12.43;4.47;;;;;;;10.73;91.12;101122.00;5067128;28;20060;-68
2024/02/29 01:32:14;;;;;;;6.85;3.42;;;;;;;10.71;90.95;101118.72;5069848;28;20052;-65
2024/02/29 01:34:53;;;;;;;9.10;3.80;;;;;;;10.73;91.21;101103.53;5066056;28;20049;-68
2024/02/29 01:37:20;;;;;;;8.43;3.50;;;;;;;10.78;91.48;101111.72;5069928;28;20390;-66
2024/02/29 01:39:47;;;;;;;9.63;4.00;;;;;;;10.69;91.94;101098.94;5082323;28;20059;-67
2024/02/29 01:42:15;;;;;;;8.27;4.03;;;;;;;10.71;92.64;101096.69;5089189;28;20055;-68
2024/02/29 01:44:55;;;;;;;10.13;3.53;;;;;;;10.52;94.48;101093.19;5068722;28;20067;-69
2024/02/29 01:47:24;;;;;;;8.30;3.65;;;;;;;10.53;95.79;101092.09;5056329;28;20079;-68
2024/02/29 01:49:58;;;;;;;6.18;3.50;;;;;;;10.49;97.09;101075.38;5064986;28;20072;-66
2024/02/29 01:52:26;;;;;;;10.63;4.32;;;;;;;10.45;97.90;101076.25;5068100;28;20045;-67
2024/02/29 01:54:54;;;;;;;7.78;4.20;;;;;;;10.65;97.97;101068.41;5051928;28;20056;-67
2024/02/29 01:57:22;;;;;;;10.02;4.38;;;;;;;10.67;97.79;101066.19;5077892;28;20048;-67
2024/02/29 01:59:50;;;;;;;6.57;3.53;;;;;;;10.66;97.51;101064.56;5054700;28;20698;-66
2024/02/29 02:02:17;;;;;;;12.93;3.45;;;;;;;10.76;97.29;101061.59;5068571;28;20048;-68
2024/02/29 02:04:45;;;;;;;12.05;3.72;;;;;;;10.68;98.14;101055.97;5068605;28;20567;-70
2024/02/29 02:07:13;;;;;;;8.13;3.55;;;;;;;10.62;99.01;101054.44;5070379;28;20059;-67
2024/02/29 02:09:42;;;;;;;9.25;3.70;;;;;;;10.74;99.09;101052.03;5070236;28;20066;-66
2024/02/29 02:12:12;;;;;;;8.57;3.60;;;;;;;10.57;99.44;101047.09;5068105;28;20056;-67
2024/02/29 02:14:39;;;;;;;;;;;;;;;10.62;99.79;101043.41;5068497;28;20061;-67
2024/02/29 02:17:08;;;;;;;7.10;3.40;;;;;;;10.73;100.00;101031.09;5069979;28;19924;-67
2024/02/29 02:19:36;;;;;;;6.88;3.42;;;;;;;10.82;99.65;101035.59;5068276;28;20059;-65
2024/02/29 02:22:04;;;;;;;9.70;3.50;;;;;;;10.79;99.23;101030.66;5069330;28;20068;-67
2024/02/29 02:24:34;;;;;;;7.20;4.10;;;;;;;10.90;98.87;101020.25;5069435;28;20159;-66
2024/02/29 02:27:02;;;;;;;6.65;3.30;;;;;;;10.68;99.52;101015.50;5088070;28;20055;-66
2024/02/29 02:29:29;;;;;;;7.63;3.80;;;;;;;10.69;100.00;101017.09;5052055;28;20056;-66
2024/02/29 02:31:57;;;;;;;7.50;3.80;;;;;;;10.49;100.00;101020.28;5048990;28;20579;-67
2024/02/29 02:34:24;;;;;;;8.55;4.45;;;;;;;10.57;100.00;101016.81;5057356;28;20048;-67
2024/02/29 02:36:52;;;;;;;12.88;4.22;;;;;;;10.54;100.00;101002.81;5062159;28;20492;-66
2024/02/29 02:39:19;;;;;;;10.13;4.00;;;;;;;10.67;100.00;101002.03;5031106;28;20076;-65
2024/02/29 02:41:48;;;;;;;12.60;4.05;;;;;;;10.54;100.00;100991.81;5049910;28;20052;-67
2024/02/29 02:44:15;;;;;;;9.05;4.20;;;;;;;10.65;100.00;100994.03;5050701;28;20047;-66
2024/02/29 02:46:43;;;;;;;9.30;4.25;;;;;;;10.72;100.00;100980.66;5035462;28;20056;-66
2024/02/29 02:49:10;;;;;;;8.35;4.45;;;;;;;10.65;100.00;100980.25;5061461;28;20532;-66
2024/02/29 02:51:38;;;;;;;7.57;4.18;;;;;;;10.80;100.00;100965.34;5050538;28;20056;-66
2024/02/29 02:54:05;;;;;;;6.45;4.15;;;;;;;10.73;100.00;100965.78;5050481;28;20049;-65
2024/02/29 02:56:32;;;;;;;8.93;4.00;;;;;;;10.62;100.00;100960.78;5065228;28;20060;-66
2024/02/29 02:59:00;;;;;;;8.38;4.50;;;;;;;10.52;100.00;100959.06;5064118;28;20053;-66
2024/02/29 03:01:28;;;;;;;8.10;4.65;;;;;;;10.67;100.00;100961.50;5049299;28;20053;-67
2024/02/29 03:03:56;;;;;;;9.13;4.38;;;;;;;10.39;100.00;100951.63;5067502;28;20041;-66
2024/02/29 03:06:23;;;;;;;10.35;4.38;;;;;;;10.34;100.00;100953.69;5069242;28;20056;-66
2024/02/29 03:08:51;;;;;;;8.77;4.43;;;;;;;10.43;100.00;100951.81;5068610;28;20063;-67
2024/02/29 03:11:18;;;;;;;8.63;4.32;;;;;;;10.52;100.00;100941.72;5068824;28;20063;-66
2024/02/29 03:13:46;;;;;;;7.55;4.47;;;;;;;10.57;100.00;100936.09;5068816;28;20041;-66
2024/02/29 03:16:21;;;;;;;12.30;4.78;;;;;;;10.66;100.00;100934.25;5068549;28;20059;-67
2024/02/29 03:18:48;;;;;;;8.07;4.60;;;;;;;10.74;100.00;100925.28;5068047;28;20049;-66
2024/02/29 03:21:18;;;;;;;9.07;5.15;;;;;;;10.65;100.00;100921.63;5068574;28;20403;-66
2024/02/29 03:23:45;;;;;;;8.25;4.82;;;;;;;10.45;100.00;100916.53;5068404;28;20063;-66
2024/02/29 03:26:13;;;;;;;11.75;5.50;;;;;;;10.50;100.00;100916.41;5055217;28;20052;-65
2024/02/29 03:28:40;;;;;;;8.70;5.30;;;;;;;10.52;100.00;100912.25;5050931;28;20060;-66
2024/02/29 03:31:13;;;;;;;8.73;4.97;;;;;;;10.61;100.00;100909.59;5068225;28;20053;-66
2024/02/29 03:33:42;;;;;;;9.65;5.20;;;;;;;10.54;100.00;100896.25;5066401;28;20072;-65
2024/02/29 03:36:09;;;;;;;9.98;5.38;;;;;;;10.58;100.00;100905.53;5066783;28;20075;-66
2024/02/29 03:38:42;;;;;;;7.97;5.32;;;;;;;10.61;100.00;100899.38;5068108;28;20495;-66
2024/02/29 03:41:09;;;;;;;8.20;5.88;;;;;;;10.59;100.00;100892.53;5068121;28;20048;-67
2024/02/29 03:43:37;;;;;;;10.60;5.95;;;;;;;10.48;100.00;100891.94;5067947;28;20045;-66
2024/02/29 03:46:04;;;;;;;10.70;5.68;;;;;;;10.40;100.00;100884.44;5068269;28;20463;-66
2024/02/29 03:48:31;;;;;;;10.25;6.22;;;;;;;10.64;100.00;100879.47;5066894;28;20543;-66
2024/02/29 03:50:59;;;;;;;9.30;6.10;;;;;;;10.66;100.00;100874.47;5066615;28;20060;-66
2024/02/29 03:53:26;;;;;;;9.43;6.78;;;;;;;10.67;100.00;100876.09;5086384;28;20056;-67
2024/02/29 03:55:54;;;;;;;10.10;6.20;;;;;;;10.62;100.00;100876.22;5087936;28;20052;-67
2024/02/29 03:58:21;;;;;;;10.18;5.72;;;;;;;10.64;100.00;100864.88;5070579;28;20052;-66
2024/02/29 04:00:49;;;;;;;10.05;6.38;;;;;;;10.54;100.00;100873.38;5048549;28;20068;-67
2024/02/29 04:03:17;;;;;;;10.30;6.18;;;;;;;10.46;100.00;100871.38;5066132;28;20443;-69
2024/02/29 04:05:45;;;;;;;12.93;6.80;;;;;;;10.65;100.00;100870.06;5064553;28;20059;-66
2024/02/29 04:08:12;;;;;;;10.18;6.75;;;;;;;10.81;100.00;100876.09;5065708;28;20162;-66
2024/02/29 04:10:48;;;;;;;10.05;6.43;;;;;;;10.48;100.00;100875.44;5067802;28;20056;-66
2024/02/29 04:13:17;;;;;;;10.30;6.65;;;;;;;10.45;100.00;100864.22;5050229;28;20063;-66
2024/02/29 04:15:45;;;;;;;11.25;7.18;;;;;;;10.51;100.00;100863.81;5067108;28;20044;-66
2024/02/29 04:18:19;;;;;;;14.65;7.35;;;;;;;10.60;100.00;100856.41;5067686;28;20059;-67
2024/02/29 04:20:46;;;;;;;11.52;6.97;;;;;;;10.59;100.00;100867.75;5067351;28;20527;-66
2024/02/29 04:23:14;;;;;;;11.23;6.70;;;;;;;10.72;100.00;100859.44;5066932;28;20317;-66
2024/02/29 04:25:44;;;;;;;9.98;6.75;;;;;;;10.73;100.00;100854.75;5065744;28;20555;-67
2024/02/29 04:28:14;;;;;;;8.95;6.43;;;;;;;10.61;100.00;100860.00;5049195;28;20052;-66
2024/02/29 04:30:42;;;;;;;9.32;6.45;;;;;;;10.63;100.00;100855.00;5068004;28;20053;-66
2024/02/29 04:33:11;;;;;;;11.33;6.67;;;;;;;10.53;100.00;100852.47;5067555;28;20637;-70
2024/02/29 04:35:39;;;;;;;10.38;6.60;;;;;;;10.53;100.00;100850.53;5047673;28;20064;-67
2024/02/29 04:38:06;;;;;;;11.93;6.53;;;;;;;10.61;100.00;100846.22;5065398;28;20059;-66
2024/02/29 04:40:34;;;;;;;10.65;6.68;;;;;;;10.71;100.00;100837.72;5049514;28;20052;-65
2024/02/29 04:43:01;;;;;;;10.75;6.65;;;;;;;10.61;100.00;100835.22;5066111;28;20605;-66
2024/02/29 04:45:31;;;;;;;9.02;6.22;;;;;;;10.63;100.00;100831.03;5067226;28;20512;-66
2024/02/29 04:47:59;;;;;;;;;;;;;;;10.38;100.00;100828.84;5067847;28;20048;-65
2024/02/29 04:50:26;;;;;;;10.38;6.13;;;;;;;10.45;100.00;100831.16;5065496;28;19924;-69
2024/02/29 04:52:53;;;;;;;9.82;5.95;;;;;;;10.44;100.00;100826.81;5065409;28;20060;-67
2024/02/29 04:55:21;;;;;;;8.90;5.47;;;;;;;10.51;100.00;100821.69;5066981;28;20048;-65
2024/02/29 04:57:49;;;;;;;9.02;6.03;;;;;;;10.46;100.00;100811.56;5065141;28;20846;-67
2024/02/29 05:00:17;;;;;;;7.57;5.43;;;;;;;10.56;100.00;100810.53;5066574;28;20067;-66
2024/02/29 05:02:45;;;;;;;7.72;4.95;;;;;;;10.53;100.00;100803.69;5071342;28;20384;-66
2024/02/29 05:05:13;;;;;;;7.97;5.30;;;;;;;10.71;100.00;100802.72;5067717;28;20049;-65
2024/02/29 05:07:41;;;;;;;7.38;4.70;;;;;;;10.82;100.00;100798.63;5069565;28;20056;-66
2024/02/29 05:10:09;;;;;;;7.28;4.88;;;;;;;10.93;100.00;100788.16;5070776;28;20067;-67
2024/02/29 05:12:37;;;;;;;8.35;4.97;;;;;;;10.94;100.00;100796.09;5071096;28;20056;-66
2024/02/29 05:15:05;;;;;;;6.28;3.95;;;;;;;11.27;100.00;100789.19;5069979;28;20464;-66
2024/02/29 05:17:32;;;;;;;6.55;4.10;;;;;;;11.12;100.00;100783.25;5071281;28;20055;-66
2024/02/29 05:20:00;;;;;;;5.85;3.83;;;;;;;10.75;100.00;100792.72;5071253;28;20048;-66
2024/02/29 05:22:27;;;;;;;5.78;3.85;;;;;;;10.77;100.00;100784.97;5071491;28;20059;-67
2024/02/29 05:24:56;;;;;;;6.38;4.18;;;;;;;10.74;100.00;100785.56;5053428;28;20045;-66
2024/02/29 05:27:29;;;;;;;5.60;3.72;;;;;;;10.87;100.00;100781.94;5070622;28;20517;-66
2024/02/29 05:29:57;;;;;;;7.40;3.85;;;;;;;10.86;100.00;100783.06;5070456;28;20056;-66
2024/02/29 05:32:24;;;;;;;6.03;3.85;;;;;;;10.93;100.00;100777.94;5070849;28;20060;-67
2024/02/29 05:34:52;;;;;;;5.63;3.83;;;;;;;10.68;100.00;100777.75;5068916;28;20415;-66
2024/02/29 05:37:20;;;;;;;6.53;4.30;;;;;;;10.79;100.00;100776.38;5052378;28;20044;-67
2024/02/29 05:39:47;;;;;;;5.68;3.70;;;;;;;10.92;100.00;100776.31;5068745;28;20052;-66
2024/02/29 05:42:15;;;;;;;6.13;3.95;;;;;;;10.89;100.00;100781.63;5068747;28;20844;-66
2024/02/29 05:44:42;;;;;;;6.75;4.60;;;;;;;10.91;100.00;100782.13;5035109;28;20052;-67
2024/02/29 05:47:09;;;;;;;6.70;4.78;;;;;;;11.03;100.00;100777.69;5051837;28;20064;-66
2024/02/29 05:49:37;;;;;;;8.52;6.10;;;;;;;10.87;100.00;100765.41;5068562;28;20056;-67
2024/02/29 05:52:04;;;;;;;9.18;6.07;;;;;;;10.79;100.00;100762.59;5067617;28;20064;-66
2024/02/29 05:54:32;;;;;;;10.07;7.18;;;;;;;10.71;100.00;100755.91;5070478;28;20059;-66
2024/02/29 05:56:59;;;;;;;10.00;7.15;;;;;;;10.63;100.00;100762.16;5051850;28;20060;-65
2024/02/29 05:59:31;;;;;;;10.43;7.50;;;;;;;10.68;100.00;100752.97;5051461;28;20064;-66
2024/02/29 06:01:59;;;;;;;10.93;7.45;;;;;;;10.74;100.00;100751.72;5039753;28;20479;-65
2024/02/29 06:04:26;;;;;;;11.18;7.72;;;;;;;10.50;100.00;100751.19;5066143;28;20048;-66
2024/02/29 06:06:54;;;;;;;12.63;8.65;;;;;;;10.53;100.00;100750.59;5067165;28;20162;-67
2024/02/29 06:09:21;;;;;;;10.93;8.45;;;;;;;10.56;100.00;100739.75;5068113;28;20063;-66
2024/02/29 06:11:49;;;;;;;12.80;8.25;;;;;;;10.62;100.00;100734.91;5068166;28;20048;-66
2024/02/29 06:14:17;;;;;;;11.23;8.65;;;;;;;10.60;100.00;100740.75;5068902;28;20051;-65
2024/02/29 06:16:44;;;;;;;10.80;7.72;;;;;;;10.49;100.00;100744.06;5052870;28;20078;-66
2024/02/29 06:19:11;;;;;;;9.00;7.22;;;;;;;10.50;100.00;100735.47;5048709;28;20061;-66
2024/02/29 06:21:39;;;;;;;9.70;7.25;;;;;;;10.43;100.00;100729.59;5051774;28;20053;-66
2024/02/29 06:24:07;;;;;;;9.35;7.22;;;;;;;10.53;100.00;100725.78;5051974;28;20060;-66
2024/02/29 06:26:37;;;;;;;10.25;7.47;;;;;;;10.43;100.00;100726.84;5069699;28;20415;-67
2024/02/29 06:29:05;;;;;;;8.90;6.78;;;;;;;10.30;100.00;100722.22;5050723;28;20057;-66
2024/02/29 06:31:32;;;;;;;9.65;7.40;;;;;;;10.22;100.00;100720.19;5034479;28;20060;-66
2024/02/29 06:33:59;;;;;;;9.18;7.15;;;;;;;10.36;100.00;100723.72;5069655;28;20866;-66
2024/02/29 06:36:27;;;;;;;10.45;7.65;;;;;;;10.35;100.00;100715.75;5066035;28;20845;-67
2024/02/29 06:38:54;;;;;;;10.30;7.90;;;;;;;10.42;100.00;100711.47;5050209;28;20060;-66
2024/02/29 06:41:21;;;;;;;11.18;8.73;;;;;;;10.35;100.00;100718.53;5066345;28;20052;-67
2024/02/29 06:43:49;;;;;;;10.82;8.57;;;;;;;10.42;100.00;100713.41;5068888;28;20056;-65
2024/02/29 06:46:16;;;;;;;13.35;9.27;;;;;;;10.36;100.00;100698.09;5067207;28;20044;-66
2024/02/29 06:48:44;;;;;;;12.60;9.13;;;;;;;10.36;100.00;100700.84;5067312;28;20048;-67
2024/02/29 06:51:12;;;;;;;12.77;8.18;;;;;;;10.45;100.00;100697.06;5068818;28;20056;-66
2024/02/29 06:53:39;;;;;;;13.95;8.57;;;;;;;10.16;100.00;100694.72;5069325;28;20040;-66
2024/02/29 06:56:06;;;;;;;10.43;8.32;;;;;;;10.27;100.00;100695.28;5068664;28;20041;-66
2024/02/29 06:58:35;;;;;;;12.57;8.00;;;;;;;10.36;100.00;100693.44;5068371;28;20059;-67
2024/02/29 07:01:04;;;;;;;10.83;7.77;;;;;;;10.40;100.00;100697.19;5066927;28;20056;-67
2024/02/29 07:03:32;;;;;;;12.25;7.07;;;;;;;10.45;100.00;100699.00;5072274;28;20767;-67
2024/02/29 07:05:59;;;;;;;12.20;7.07;;;;;;;10.33;100.00;100696.00;5066909;28;20064;-67
2024/02/29 07:08:26;;;;;;;11.52;6.72;;;;;;;10.54;100.00;100689.69;5066973;28;20052;-66
2024/02/29 07:10:54;;;;;;;13.70;7.07;;;;;;;10.33;100.00;100696.81;5068215;28;20571;-68
2024/02/29 07:13:21;;;;;;;9.15;6.82;;;;;;;10.22;100.00;100695.41;5066649;28;20646;-68
2024/02/29 07:15:48;;;;;;;9.40;6.63;;;;;;;10.17;100.00;100695.53;5068257;28;20079;-69
2024/02/29 07:18:16;;;;;;;8.30;5.95;;;;;;;10.08;100.00;100689.09;5067219;28;20059;-65
2024/02/29 07:20:46;;;;;;;10.55;6.13;;;;;;;10.15;100.00;100684.03;5067088;28;20672;-67
2024/02/29 07:23:18;;;;;;;9.63;6.30;;;;;;;9.97;100.00;100682.22;5067255;28;20135;-67
2024/02/29 07:25:46;;;;;;;8.45;6.50;;;;;;;10.11;100.00;100685.78;5066446;28;20056;-67
2024/02/29 07:28:13;;;;;;;10.40;6.20;;;;;;;10.03;100.00;100680.97;5065781;28;20060;-66
2024/02/29 07:30:41;;;;;;;7.95;5.50;;;;;;;10.19;100.00;100677.59;5061809;28;20056;-65
2024/02/29 07:33:08;;;;;;;10.80;5.57;;;;;;;10.16;100.00;100683.69;5060235;28;20052;-67
2024/02/29 07:35:36;;;;;;;9.27;5.95;;;;;;;10.26;100.00;100679.91;5071883;28;20040;-66
2024/02/29 07:38:03;;;;;;;10.27;6.57;;;;;;;10.38;100.00;100674.66;5069827;28;20122;-67
2024/02/29 07:40:31;;;;;;;9.40;6.15;;;;;;;10.23;100.00;100673.06;5067988;28;20605;-66
2024/02/29 07:43:00;;;;;;;8.00;5.50;;;;;;;10.27;100.00;100669.72;5068500;28;20055;-67
2024/02/29 07:45:31;;;;;;;9.98;5.85;;;;;;;10.51;100.00;100671.03;5069351;28;20047;-68
2024/02/29 07:48:00;;;;;;;8.90;5.90;;;;;;;10.33;100.00;100671.22;5062401;28;20044;-70
2024/02/29 07:50:31;;;;;;;13.13;5.78;;;;;;;10.44;100.00;100661.56;5064995;28;20067;-69
2024/02/29 07:52:59;;;;;;;9.57;6.22;;;;;;;10.37;100.00;100661.22;5048234;28;20111;-72
2024/02/29 07:55:28;;;;;;;7.88;5.85;;;;;;;10.17;100.00;100662.50;5060948;28;20951;-72
2024/02/29 07:57:56;;;;;;;7.85;6.15;;;;;;;10.03;100.00;100658.97;5049546;28;20932;-70
2024/02/29 08:00:24;;;;;;;9.98;6.32;;;;;;;10.00;100.00;100651.34;5067030;28;20060;-69
2024/02/29 08:02:52;;;;;;;11.38;5.82;;;;;;;10.10;100.00;100648.38;5063249;28;20052;-69
2024/02/29 08:05:19;;;;;;;11.20;5.45;;;;;;;10.39;100.00;100645.19;5066509;28;20037;-70
2024/02/29 08:07:48;;;;;;;7.10;4.82;;;;;;;10.68;100.00;100640.84;5068124;28;20052;-70
2024/02/29 08:10:16;;;;;;;11.02;5.45;;;;;;;10.64;100.00;100633.50;5054639;28;20052;-71
2024/02/29 08:12:44;;;;;;;10.95;5.55;;;;;;;10.45;100.00;100630.97;5062024;28;20051;-69
2024/02/29 08:15:12;;;;;;;8.27;5.40;;;;;;;10.43;100.00;100633.22;5061654;28;20045;-70
2024/02/29 08:17:39;;;;;;;8.20;5.10;;;;;;;10.32;100.00;100622.78;5049061;28;20061;-70
2024/02/29 08:20:07;;;;;;;8.18;5.03;;;;;;;10.50;100.00;100625.34;5058360;28;20055;-69
2024/02/29 08:22:35;;;;;;;9.27;5.00;;;;;;;10.63;100.00;100626.38;5059430;28;20048;-70
2024/02/29 08:25:03;;;;;;;10.35;5.38;;;;;;;10.48;100.00;100619.31;5066248;28;20049;-69
2024/02/29 08:27:30;;;;;;;16.65;10.13;;;;;;;10.42;100.00;100623.34;5065942;28;20045;-69
2024/02/29 08:29:58;;;;;;;9.80;6.25;;;;;;;10.37;100.00;100623.47;5071411;28;20052;-70
2024/02/29 08:32:26;;;;;;;10.88;6.50;;;;;;;10.31;100.00;100627.47;5059328;28;20078;-69
2024/02/29 08:34:56;;;;;;;13.55;6.00;;;;;;;10.27;100.00;100620.97;5064367;28;20442;-69
2024/02/29 08:37:24;;;;;;;9.68;5.43;;;;;;;10.21;100.00;100613.97;5062288;28;20056;-69
2024/02/29 08:39:51;;;;;;;10.52;4.72;;;;;;;10.18;100.00;100609.91;5067896;28;20056;-70
2024/02/29 08:42:19;;;;;;;13.63;7.45;;;;;;;10.26;100.00;100613.03;5067348;28;20049;-70
2024/02/29 08:44:47;;;;;;;11.05;5.55;;;;;;;10.29;100.00;100604.94;5063299;28;20059;-69
2024/02/29 08:47:14;;;;;;;7.80;5.60;;;;;;;10.37;100.00;100606.13;5056936;28;20044;-70
2024/02/29 08:49:42;;;;;;;9.85;5.90;;;;;;;10.36;100.00;100605.31;5059895;28;20061;-70
2024/02/29 08:52:09;;;;;;;8.18;5.43;;;;;;;10.28;100.00;100592.31;5065242;28;20053;-70
2024/02/29 08:54:37;;;;;;;9.13;4.70;;;;;;;10.16;100.00;100594.84;5063848;28;20044;-69
2024/02/29 08:57:04;;;;;;;8.15;5.15;;;;;;;10.51;100.00;100598.63;5064411;28;20045;-69
2024/02/29 08:59:32;;;;;;;9.23;4.60;;;;;;;10.45;100.00;100588.84;5062870;28;20044;-69
2024/02/29 09:02:05;;;;;;;7.55;4.47;;;;;;;10.39;100.00;100571.66;5066056;28;20056;-69
2024/02/29 09:04:33;;;;;;;11.40;5.07;;;;;;;10.55;100.00;100578.38;5064242;28;20060;-69
2024/02/29 09:07:01;;;;;;;7.45;4.60;;;;;;;10.47;100.00;100573.66;5065395;28;20056;-68
2024/02/29 09:09:29;;;;;;;11.20;4.72;;;;;;;10.40;100.00;100572.47;5068673;28;20060;-69
2024/02/29 09:11:56;;;;;;;8.20;3.92;;;;;;;10.59;100.00;100565.59;5063928;28;20049;-69
2024/02/29 09:14:24;;;;;;;9.48;4.65;;;;;;;10.49;100.00;100565.06;5062412;28;20075;-70
2024/02/29 09:16:51;;;;;;;17.05;5.13;;;;;;;10.68;100.00;100565.63;5062843;28;20043;-69
2024/02/29 09:19:18;;;;;;;8.57;4.80;;;;;;;10.50;100.00;100562.00;5058137;28;20048;-68
2024/02/29 09:21:46;;;;;;;9.05;4.70;;;;;;;10.62;100.00;100559.47;5068872;28;20826;-73
2024/02/29 09:24:13;;;;;;;8.35;4.28;;;;;;;10.76;100.00;100557.41;5058550;28;20051;-70
2024/02/29 09:26:42;;;;;;;6.30;4.18;;;;;;;10.75;100.00;100554.97;5067818;28;20036;-70
2024/02/29 09:29:10;;;;;;;8.88;4.30;;;;;;;10.95;100.00;100551.63;5052519;28;20057;-70
2024/02/29 09:31:38;;;;;;;8.77;4.63;;;;;;;10.74;100.00;100534.09;5061767;28;20040;-69
2024/02/29 09:34:07;;;;;;;6.00;4.00;;;;;;;10.71;100.00;100537.44;5060109;28;20056;-69
2024/02/29 09:36:35;;;;;;;7.20;5.10;;;;;;;10.70;100.00;100539.41;5064187;28;20265;-71
2024/02/29 09:39:06;;;;;;;15.43;10.50;;;;;;;10.72;100.00;100534.38;5043829;28;20071;-70
2024/02/29 09:41:34;;;;;;;9.57;5.18;;;;;;;10.64;100.00;100526.91;5071478;28;20048;-69
2024/02/29 09:44:21;;;;;;;7.15;4.03;;;;;;;10.80;100.00;100528.09;5059636;28;20068;-70
2024/02/29 09:46:50;;;;;;;7.43;4.97;;;;;;;11.01;100.00;100520.03;5052875;28;20052;-68
2024/02/29 09:49:19;;;;;;;7.30;4.80;;;;;;;11.03;100.00;100515.84;5065867;28;20586;-70
2024/02/29 09:51:47;;;;;;;9.05;5.25;;;;;;;10.95;100.00;100518.56;5070390;28;20071;-69
2024/02/29 09:54:17;;;;;;;9.73;4.75;;;;;;;10.78;100.00;100518.50;5060552;28;20064;-70
2024/02/29 09:56:45;;;;;;;8.00;4.72;;;;;;;10.93;100.00;100512.59;5050646;28;20045;-70
2024/02/29 09:59:16;;;;;;;7.85;4.97;;;;;;;10.84;100.00;100506.22;5063876;28;20048;-69
2024/02/29 10:01:44;;;;;;;6.47;4.63;;;;;;;10.90;100.00;100499.41;5054597;28;20049;-73
2024/02/29 10:04:11;;;;;;;9.38;5.15;;;;;;;10.98;100.00;100498.66;5048634;28;20053;-73
2024/02/29 10:06:39;;;;;;;7.43;4.95;;;;;;;11.03;100.00;100491.03;5064538;28;20048;-74
2024/02/29 10:09:06;;;;;;;7.63;4.75;;;;;;;11.04;100.00;100481.63;5072345;28;20048;-73
2024/02/29 10:11:59;;;;;;;7.28;4.35;;;;;;;11.09;100.00;100495.25;5062130;28;20592;-75
2024/02/29 10:14:29;;;;;;;5.78;3.72;;;;;;;11.07;100.00;100482.94;5069145;28;20052;-74
2024/02/29 10:16:57;;;;;;;9.52;5.90;;;;;;;11.17;100.00;100483.44;5053120;28;20132;-73
2024/02/29 10:19:25;;;;;;;6.20;4.03;;;;;;;10.98;100.00;100482.13;5062036;28;20503;-74
2024/02/29 10:21:52;;;;;;;10.70;7.88;;;;;;;10.95;100.00;100482.72;5071574;28;20071;-74
2024/02/29 10:24:21;;;;;;;17.35;9.82;;;;;;;11.07;100.00;100480.97;5070054;28;20555;-73
2024/02/29 10:26:50;;;;;;;13.07;7.33;;;;;;;11.10;100.00;100466.56;5050062;28;20037;-74
2024/02/29 10:29:18;;;;;;;13.57;8.65;;;;;;;11.00;100.00;100461.34;5070629;28;20041;-72
2024/02/29 10:31:45;;;;;;;10.38;6.32;;;;;;;11.08;100.00;100460.56;5072067;28;20055;-72
2024/02/29 10:34:13;;;;;;;12.13;8.10;;;;;;;11.15;100.00;100457.31;5051006;28;20064;-73
2024/02/29 10:36:42;;;;;;;7.50;5.40;;;;;;;11.09;100.00;100461.34;5070165;28;20065;-71
2024/02/29 10:39:10;;;;;;;8.53;4.47;;;;;;;11.04;100.00;100445.81;5043528;28;20068;-71
2024/02/29 10:41:38;;;;;;;8.77;4.10;;;;;;;11.50;100.00;100444.34;5037699;28;20785;-75
2024/02/29 10:44:08;;;;;;;6.85;3.83;;;;;;;11.41;100.00;100452.63;5064724;28;20357;-76
2024/02/29 10:46:37;;;;;;;6.75;3.85;;;;;;;11.48;100.00;100446.59;5030891;28;20068;-77
2024/02/29 10:49:27;;;;;;;6.63;4.10;;;;;;;11.57;100.00;100450.16;5066121;28;20067;-79
2024/02/29 10:52:09;;;;;;;11.18;4.97;;;;;;;11.44;100.00;100440.94;5034631;28;20064;-76
2024/02/29 10:54:42;;;;;;;8.38;4.80;;;;;;;11.43;100.00;100444.03;5071853;28;20064;-77
2024/02/29 10:57:17;;;;;;;6.93;4.00;;;;;;;11.35;100.00;100438.19;5070859;28;20043;-77
2024/02/29 10:59:57;;;;;;;6.63;3.60;;;;;;;11.50;100.00;100431.38;5071326;28;20063;-77
2024/02/29 11:02:26;;;;;;;10.73;3.25;;;;;;;11.56;100.00;100429.25;5056254;28;20056;-77
2024/02/29 11:04:53;;;;;;;6.53;3.60;;;;;;;11.70;100.00;100421.63;5034430;28;20056;-77
2024/02/29 11:07:21;;;;;;;7.85;4.03;;;;;;;11.79;100.00;100422.41;5062837;28;20048;-76
2024/02/29 11:09:49;;;;;;;8.60;3.80;;;;;;;11.68;100.00;100424.69;5069063;28;20052;-76
2024/02/29 11:12:17;;;;;;;6.32;3.80;;;;;;;11.78;100.00;100415.28;5067881;28;20057;-76
2024/02/29 11:14:48;;;;;;;6.60;3.60;;;;;;;11.89;100.00;100414.56;5060899;28;20048;-77
2024/02/29 11:17:17;;;;;;;7.93;3.70;;;;;;;11.97;100.00;100412.94;5063279;28;20048;-75
2024/02/29 11:19:47;;;;;;;6.75;4.30;;;;;;;11.97;100.00;100411.00;5064969;28;20155;-69
2024/02/29 11:22:33;;;;;;;5.63;3.83;;;;;;;12.08;100.00;100409.47;5069467;28;20056;-71